sensor_id;sensor_type;location;lat;lon;timestamp;pressure;altitude;pressure_sealevel;temperature;humidity
7834;BME280;3962;42.696;23.354;2023-05-22T00:01:54;94955.72;;;14.64;84.63
7834;BME280;3962;42.696;23.354;2023-05-22T00:04:21;94948.97;;;14.68;84.70
7834;BME280;3962;42.696;23.354;2023-05-22T00:06:48;94947.22;;;14.75;84.66
7834;BME280;3962;42.696;23.354;2023-05-22T00:09:16;94949.19;;;14.81;84.13
7834;BME280;3962;42.696;23.354;2023-05-22T00:11:43;94944.97;;;14.86;83.74
7834;BME280;3962;42.696;23.354;2023-05-22T00:14:10;94949.78;;;14.91;82.94
7834;BME280;3962;42.696;23.354;2023-05-22T00:16:38;94946.91;;;14.92;82.94
7834;BME280;3962;42.696;23.354;2023-05-22T00:19:04;94945.81;;;14.87;83.09
7834;BME280;3962;42.696;23.354;2023-05-22T00:21:32;94951.50;;;14.84;83.23
7834;BME280;3962;42.696;23.354;2023-05-22T00:24:02;94953.38;;;14.83;83.70
7834;BME280;3962;42.696;23.354;2023-05-22T00:26:30;94946.69;;;14.79;83.88
7834;BME280;3962;42.696;23.354;2023-05-22T00:28:57;94939.50;;;14.80;83.51
7834;BME280;3962;42.696;23.354;2023-05-22T00:31:23;94953.06;;;14.78;83.85
7834;BME280;3962;42.696;23.354;2023-05-22T00:33:50;94948.09;;;14.76;83.81
7834;BME280;3962;42.696;23.354;2023-05-22T00:36:17;94948.91;;;14.76;83.61
7834;BME280;3962;42.696;23.354;2023-05-22T00:38:44;94951.31;;;14.71;83.75
7834;BME280;3962;42.696;23.354;2023-05-22T00:41:12;94958.84;;;14.68;83.90
7834;BME280;3962;42.696;23.354;2023-05-22T00:43:41;94957.16;;;14.67;84.62
7834;BME280;3962;42.696;23.354;2023-05-22T00:46:09;94946.28;;;14.68;84.54
7834;BME280;3962;42.696;23.354;2023-05-22T00:48:36;94947.94;;;14.69;84.61
7834;BME280;3962;42.696;23.354;2023-05-22T00:51:04;94947.13;;;14.69;84.00
7834;BME280;3962;42.696;23.354;2023-05-22T00:53:32;94949.81;;;14.69;84.30
7834;BME280;3962;42.696;23.354;2023-05-22T00:55:59;94950.63;;;14.69;84.24
7834;BME280;3962;42.696;23.354;2023-05-22T00:58:26;94958.19;;;14.66;84.44
7834;BME280;3962;42.696;23.354;2023-05-22T01:00:55;94952.19;;;14.64;84.55
7834;BME280;3962;42.696;23.354;2023-05-22T01:03:22;94944.44;;;14.69;84.49
7834;BME280;3962;42.696;23.354;2023-05-22T01:05:51;94938.91;;;14.70;84.13
7834;BME280;3962;42.696;23.354;2023-05-22T01:08:19;94947.78;;;14.71;84.40
7834;BME280;3962;42.696;23.354;2023-05-22T01:10:48;94944.72;;;14.73;84.05
7834;BME280;3962;42.696;23.354;2023-05-22T01:13:26;94942.53;;;14.77;84.57
7834;BME280;3962;42.696;23.354;2023-05-22T01:16:00;94949.19;;;14.81;84.45
7834;BME280;3962;42.696;23.354;2023-05-22T01:18:32;94948.81;;;14.84;84.48
7834;BME280;3962;42.696;23.354;2023-05-22T01:21:05;94945.59;;;14.88;84.23
7834;BME280;3962;42.696;23.354;2023-05-22T01:23:50;94944.09;;;14.86;84.16
7834;BME280;3962;42.696;23.354;2023-05-22T01:26:35;94935.25;;;14.85;83.79
7834;BME280;3962;42.696;23.354;2023-05-22T01:29:26;94939.97;;;14.83;83.85
7834;BME280;3962;42.696;23.354;2023-05-22T01:31:56;94936.34;;;14.77;83.87
7834;BME280;3962;42.696;23.354;2023-05-22T01:34:25;94927.53;;;14.68;84.15
7834;BME280;3962;42.696;23.354;2023-05-22T01:36:53;94929.41;;;14.68;84.33
7834;BME280;3962;42.696;23.354;2023-05-22T01:39:21;94932.41;;;14.65;84.70
7834;BME280;3962;42.696;23.354;2023-05-22T01:41:49;94925.78;;;14.61;84.34
7834;BME280;3962;42.696;23.354;2023-05-22T01:44:16;94924.28;;;14.58;84.44
7834;BME280;3962;42.696;23.354;2023-05-22T01:46:42;94932.38;;;14.50;84.96
7834;BME280;3962;42.696;23.354;2023-05-22T01:49:10;94932.63;;;14.41;85.22
7834;BME280;3962;42.696;23.354;2023-05-22T01:51:45;94927.69;;;14.30;85.62
7834;BME280;3962;42.696;23.354;2023-05-22T01:54:20;94931.19;;;14.30;86.10
7834;BME280;3962;42.696;23.354;2023-05-22T01:56:54;94925.81;;;14.30;86.08
7834;BME280;3962;42.696;23.354;2023-05-22T01:59:26;94929.53;;;14.29;85.86
7834;BME280;3962;42.696;23.354;2023-05-22T02:02:02;94924.72;;;14.17;86.15
7834;BME280;3962;42.696;23.354;2023-05-22T02:04:34;94927.78;;;14.14;86.55
7834;BME280;3962;42.696;23.354;2023-05-22T02:07:03;94920.44;;;14.08;86.84
7834;BME280;3962;42.696;23.354;2023-05-22T02:09:32;94918.94;;;14.05;87.29
7834;BME280;3962;42.696;23.354;2023-05-22T02:12:00;94921.47;;;14.07;87.68
7834;BME280;3962;42.696;23.354;2023-05-22T02:14:28;94923.28;;;14.06;87.61
7834;BME280;3962;42.696;23.354;2023-05-22T02:16:56;94928.16;;;14.03;87.96
7834;BME280;3962;42.696;23.354;2023-05-22T02:19:23;94930.53;;;13.98;87.96
7834;BME280;3962;42.696;23.354;2023-05-22T02:21:51;94925.72;;;13.93;88.62
7834;BME280;3962;42.696;23.354;2023-05-22T02:24:18;94925.91;;;13.92;88.59
7834;BME280;3962;42.696;23.354;2023-05-22T02:26:44;94924.13;;;13.76;89.01
7834;BME280;3962;42.696;23.354;2023-05-22T02:29:12;94923.38;;;13.60;90.07
7834;BME280;3962;42.696;23.354;2023-05-22T02:31:39;94925.25;;;13.51;90.81
7834;BME280;3962;42.696;23.354;2023-05-22T02:34:05;94926.41;;;13.49;91.35
7834;BME280;3962;42.696;23.354;2023-05-22T02:36:32;94925.97;;;13.45;91.88
7834;BME280;3962;42.696;23.354;2023-05-22T02:39:03;94922.97;;;13.40;91.89
7834;BME280;3962;42.696;23.354;2023-05-22T02:41:30;94920.63;;;13.37;91.97
7834;BME280;3962;42.696;23.354;2023-05-22T02:43:57;94925.50;;;13.34;92.68
7834;BME280;3962;42.696;23.354;2023-05-22T02:46:24;94917.03;;;13.22;93.43
7834;BME280;3962;42.696;23.354;2023-05-22T02:48:50;94918.72;;;13.15;93.79
7834;BME280;3962;42.696;23.354;2023-05-22T02:51:17;94918.53;;;13.17;94.09
7834;BME280;3962;42.696;23.354;2023-05-22T02:53:44;94921.69;;;13.20;93.98
7834;BME280;3962;42.696;23.354;2023-05-22T02:56:12;94923.03;;;13.24;94.00
7834;BME280;3962;42.696;23.354;2023-05-22T02:58:39;94919.00;;;13.20;94.53
7834;BME280;3962;42.696;23.354;2023-05-22T03:01:06;94915.84;;;13.17;94.11
7834;BME280;3962;42.696;23.354;2023-05-22T03:03:33;94927.72;;;13.22;94.47
7834;BME280;3962;42.696;23.354;2023-05-22T03:06:00;94924.19;;;13.22;93.85
7834;BME280;3962;42.696;23.354;2023-05-22T03:08:28;94914.53;;;13.13;94.19
7834;BME280;3962;42.696;23.354;2023-05-22T03:10:57;94919.75;;;13.06;94.60
7834;BME280;3962;42.696;23.354;2023-05-22T03:13:25;94924.09;;;12.99;94.85
7834;BME280;3962;42.696;23.354;2023-05-22T03:15:52;94921.59;;;12.98;95.26
7834;BME280;3962;42.696;23.354;2023-05-22T03:18:19;94922.56;;;13.05;95.42
7834;BME280;3962;42.696;23.354;2023-05-22T03:20:47;94927.56;;;13.08;95.70
7834;BME280;3962;42.696;23.354;2023-05-22T03:23:14;94926.09;;;12.97;95.20
7834;BME280;3962;42.696;23.354;2023-05-22T03:25:40;94909.22;;;12.89;96.08
7834;BME280;3962;42.696;23.354;2023-05-22T03:28:07;94913.06;;;12.86;95.86
7834;BME280;3962;42.696;23.354;2023-05-22T03:30:36;94918.41;;;12.78;96.18
7834;BME280;3962;42.696;23.354;2023-05-22T03:33:02;94913.94;;;12.71;96.26
7834;BME280;3962;42.696;23.354;2023-05-22T03:35:29;94917.09;;;12.66;96.80
7834;BME280;3962;42.696;23.354;2023-05-22T03:37:56;94923.13;;;12.68;96.99
7834;BME280;3962;42.696;23.354;2023-05-22T03:40:23;94920.44;;;12.60;98.11
7834;BME280;3962;42.696;23.354;2023-05-22T03:42:50;94906.75;;;12.55;97.96
7834;BME280;3962;42.696;23.354;2023-05-22T03:45:17;94916.44;;;12.64;97.65
7834;BME280;3962;42.696;23.354;2023-05-22T03:47:46;94917.28;;;12.65;98.00
7834;BME280;3962;42.696;23.354;2023-05-22T03:50:12;94915.25;;;12.67;97.73
7834;BME280;3962;42.696;23.354;2023-05-22T03:52:39;94925.09;;;12.74;98.16
7834;BME280;3962;42.696;23.354;2023-05-22T03:55:07;94922.88;;;13.18;98.24
7834;BME280;3962;42.696;23.354;2023-05-22T03:57:34;94917.94;;;13.37;95.98
7834;BME280;3962;42.696;23.354;2023-05-22T04:00:01;94928.69;;;13.68;94.88
7834;BME280;3962;42.696;23.354;2023-05-22T04:02:34;94927.47;;;13.78;93.20
7834;BME280;3962;42.696;23.354;2023-05-22T04:05:07;94935.63;;;13.85;93.15
7834;BME280;3962;42.696;23.354;2023-05-22T04:07:34;94938.72;;;13.96;92.65
7834;BME280;3962;42.696;23.354;2023-05-22T04:10:01;94941.16;;;14.14;92.95
7834;BME280;3962;42.696;23.354;2023-05-22T04:12:28;94944.28;;;14.25;92.27
7834;BME280;3962;42.696;23.354;2023-05-22T04:14:55;94941.34;;;14.35;91.40
7834;BME280;3962;42.696;23.354;2023-05-22T04:17:22;94938.72;;;14.27;90.77
7834;BME280;3962;42.696;23.354;2023-05-22T04:19:49;94946.41;;;14.30;91.17
7834;BME280;3962;42.696;23.354;2023-05-22T04:22:17;94947.81;;;14.48;90.66
7834;BME280;3962;42.696;23.354;2023-05-22T04:24:44;94945.78;;;14.50;89.37
7834;BME280;3962;42.696;23.354;2023-05-22T04:27:13;94939.69;;;14.34;89.52
7834;BME280;3962;42.696;23.354;2023-05-22T04:29:40;94945.63;;;14.21;90.12
7834;BME280;3962;42.696;23.354;2023-05-22T04:32:09;94944.44;;;14.24;89.77
7834;BME280;3962;42.696;23.354;2023-05-22T04:34:36;94940.31;;;14.13;90.61
7834;BME280;3962;42.696;23.354;2023-05-22T04:37:03;94944.03;;;14.35;90.41
7834;BME280;3962;42.696;23.354;2023-05-22T04:39:32;94945.84;;;14.42;89.82
7834;BME280;3962;42.696;23.354;2023-05-22T04:41:59;94949.56;;;14.33;89.62
7834;BME280;3962;42.696;23.354;2023-05-22T04:44:30;94949.47;;;14.86;89.03
7834;BME280;3962;42.696;23.354;2023-05-22T04:46:59;94945.06;;;14.93;87.32
7834;BME280;3962;42.696;23.354;2023-05-22T04:49:26;94947.16;;;14.83;87.11
7834;BME280;3962;42.696;23.354;2023-05-22T04:51:54;94945.09;;;14.71;87.22
7834;BME280;3962;42.696;23.354;2023-05-22T04:54:22;94945.59;;;14.88;87.00
7834;BME280;3962;42.696;23.354;2023-05-22T04:56:51;94949.16;;;15.03;86.84
7834;BME280;3962;42.696;23.354;2023-05-22T04:59:18;94945.66;;;15.17;86.41
7834;BME280;3962;42.696;23.354;2023-05-22T05:01:48;94946.78;;;15.23;85.45
7834;BME280;3962;42.696;23.354;2023-05-22T05:04:15;94946.03;;;15.29;85.30
7834;BME280;3962;42.696;23.354;2023-05-22T05:06:42;94943.16;;;15.16;84.61
7834;BME280;3962;42.696;23.354;2023-05-22T05:09:09;94952.94;;;15.31;85.25
7834;BME280;3962;42.696;23.354;2023-05-22T05:11:36;94940.63;;;15.37;84.09
7834;BME280;3962;42.696;23.354;2023-05-22T05:14:05;94941.56;;;15.44;83.71
7834;BME280;3962;42.696;23.354;2023-05-22T05:16:32;94961.50;;;15.56;83.88
7834;BME280;3962;42.696;23.354;2023-05-22T05:19:00;94960.03;;;15.53;83.77
7834;BME280;3962;42.696;23.354;2023-05-22T05:21:28;94964.78;;;15.66;83.38
7834;BME280;3962;42.696;23.354;2023-05-22T05:23:55;94958.28;;;15.75;82.76
7834;BME280;3962;42.696;23.354;2023-05-22T05:26:22;94958.53;;;15.94;82.26
7834;BME280;3962;42.696;23.354;2023-05-22T05:28:58;94964.06;;;16.07;81.47
7834;BME280;3962;42.696;23.354;2023-05-22T05:31:29;94955.66;;;15.96;79.40
7834;BME280;3962;42.696;23.354;2023-05-22T05:33:57;94965.81;;;16.15;79.43
7834;BME280;3962;42.696;23.354;2023-05-22T05:36:24;94961.97;;;16.38;78.54
7834;BME280;3962;42.696;23.354;2023-05-22T05:38:51;94959.56;;;16.43;77.34
7834;BME280;3962;42.696;23.354;2023-05-22T05:41:19;94957.78;;;16.50;76.35
7834;BME280;3962;42.696;23.354;2023-05-22T05:43:46;94954.06;;;16.51;75.64
7834;BME280;3962;42.696;23.354;2023-05-22T05:46:13;94960.97;;;16.60;75.46
7834;BME280;3962;42.696;23.354;2023-05-22T05:48:44;94960.78;;;16.41;75.24
7834;BME280;3962;42.696;23.354;2023-05-22T05:51:11;94969.38;;;16.36;74.73
7834;BME280;3962;42.696;23.354;2023-05-22T05:53:38;94955.78;;;16.38;74.43
7834;BME280;3962;42.696;23.354;2023-05-22T05:56:07;94968.84;;;16.62;73.04
7834;BME280;3962;42.696;23.354;2023-05-22T05:58:33;94969.75;;;16.69;71.30
7834;BME280;3962;42.696;23.354;2023-05-22T06:01:03;94960.91;;;16.96;71.12
7834;BME280;3962;42.696;23.354;2023-05-22T06:03:33;94962.16;;;17.21;69.72
7834;BME280;3962;42.696;23.354;2023-05-22T06:06:02;94958.28;;;17.30;70.28
7834;BME280;3962;42.696;23.354;2023-05-22T06:08:29;94974.38;;;17.44;69.91
7834;BME280;3962;42.696;23.354;2023-05-22T06:10:56;94970.84;;;17.44;69.94
7834;BME280;3962;42.696;23.354;2023-05-22T06:13:23;94964.31;;;17.32;69.36
7834;BME280;3962;42.696;23.354;2023-05-22T06:15:50;94963.91;;;17.35;68.60
7834;BME280;3962;42.696;23.354;2023-05-22T06:18:17;94960.09;;;17.23;68.82
7834;BME280;3962;42.696;23.354;2023-05-22T06:20:44;94970.22;;;17.42;68.71
7834;BME280;3962;42.696;23.354;2023-05-22T06:23:12;94973.44;;;17.58;67.73
7834;BME280;3962;42.696;23.354;2023-05-22T06:25:39;94971.41;;;17.67;67.92
7834;BME280;3962;42.696;23.354;2023-05-22T06:28:06;94962.28;;;17.61;67.52
7834;BME280;3962;42.696;23.354;2023-05-22T06:30:34;94976.06;;;17.86;67.45
7834;BME280;3962;42.696;23.354;2023-05-22T06:33:01;94973.69;;;18.04;66.55
7834;BME280;3962;42.696;23.354;2023-05-22T06:35:28;94973.34;;;18.20;64.09
7834;BME280;3962;42.696;23.354;2023-05-22T06:37:55;94969.75;;;18.47;63.40
7834;BME280;3962;42.696;23.354;2023-05-22T06:40:24;94975.00;;;18.74;61.81
7834;BME280;3962;42.696;23.354;2023-05-22T06:42:51;94972.38;;;19.00;61.29
7834;BME280;3962;42.696;23.354;2023-05-22T06:45:19;94970.94;;;19.30;59.75
7834;BME280;3962;42.696;23.354;2023-05-22T06:50:13;94963.00;;;19.80;56.45
7834;BME280;3962;42.696;23.354;2023-05-22T06:52:41;94964.03;;;19.86;56.25
7834;BME280;3962;42.696;23.354;2023-05-22T06:55:08;94961.53;;;20.10;55.85
7834;BME280;3962;42.696;23.354;2023-05-22T06:57:37;94966.41;;;20.39;55.22
7834;BME280;3962;42.696;23.354;2023-05-22T07:00:10;94961.19;;;20.88;54.73
7834;BME280;3962;42.696;23.354;2023-05-22T07:02:52;94970.47;;;21.54;52.57
7834;BME280;3962;42.696;23.354;2023-05-22T07:05:25;94968.75;;;21.84;51.01
7834;BME280;3962;42.696;23.354;2023-05-22T07:07:52;94973.31;;;21.35;52.23
7834;BME280;3962;42.696;23.354;2023-05-22T07:10:19;94978.84;;;20.91;53.01
7834;BME280;3962;42.696;23.354;2023-05-22T07:12:47;94973.06;;;20.37;53.87
7834;BME280;3962;42.696;23.354;2023-05-22T07:15:15;94963.16;;;20.11;54.00
7834;BME280;3962;42.696;23.354;2023-05-22T07:17:42;94970.41;;;20.30;53.45
7834;BME280;3962;42.696;23.354;2023-05-22T07:20:12;94968.38;;;20.63;52.79
7834;BME280;3962;42.696;23.354;2023-05-22T07:22:40;94977.75;;;20.98;51.43
7834;BME280;3962;42.696;23.354;2023-05-22T07:25:08;94974.88;;;21.49;51.03
7834;BME280;3962;42.696;23.354;2023-05-22T07:27:37;94967.94;;;21.84;48.24
7834;BME280;3962;42.696;23.354;2023-05-22T07:30:23;94978.03;;;21.95;48.77
7834;BME280;3962;42.696;23.354;2023-05-22T07:32:50;94968.47;;;22.10;47.81
7834;BME280;3962;42.696;23.354;2023-05-22T07:35:17;94966.19;;;22.32;47.89
7834;BME280;3962;42.696;23.354;2023-05-22T07:37:45;94969.38;;;22.40;47.38
7834;BME280;3962;42.696;23.354;2023-05-22T07:40:14;94963.69;;;22.12;47.88
7834;BME280;3962;42.696;23.354;2023-05-22T07:42:42;94956.25;;;22.08;48.35
7834;BME280;3962;42.696;23.354;2023-05-22T07:45:09;94964.88;;;22.16;48.32
7834;BME280;3962;42.696;23.354;2023-05-22T07:47:39;94952.78;;;21.76;49.16
7834;BME280;3962;42.696;23.354;2023-05-22T07:50:07;94960.75;;;21.71;49.91
7834;BME280;3962;42.696;23.354;2023-05-22T07:52:34;94965.41;;;22.25;49.93
7834;BME280;3962;42.696;23.354;2023-05-22T07:55:01;94963.97;;;23.05;48.13
7834;BME280;3962;42.696;23.354;2023-05-22T07:57:28;94958.56;;;23.58;46.32
7834;BME280;3962;42.696;23.354;2023-05-22T07:59:57;94963.28;;;23.62;45.48
7834;BME280;3962;42.696;23.354;2023-05-22T08:02:24;94963.31;;;23.74;45.10
7834;BME280;3962;42.696;23.354;2023-05-22T08:04:55;94960.19;;;24.11;44.08
7834;BME280;3962;42.696;23.354;2023-05-22T08:07:22;94961.63;;;24.65;44.92
7834;BME280;3962;42.696;23.354;2023-05-22T08:09:49;94963.13;;;25.12;42.84
7834;BME280;3962;42.696;23.354;2023-05-22T08:12:16;94957.88;;;24.43;42.20
7834;BME280;3962;42.696;23.354;2023-05-22T08:14:42;94965.13;;;24.14;43.15
7834;BME280;3962;42.696;23.354;2023-05-22T08:17:09;94963.16;;;24.49;43.80
7834;BME280;3962;42.696;23.354;2023-05-22T08:19:36;94966.31;;;24.81;43.07
7834;BME280;3962;42.696;23.354;2023-05-22T08:22:04;94966.91;;;24.83;43.21
7834;BME280;3962;42.696;23.354;2023-05-22T08:24:31;94968.00;;;24.70;43.06
7834;BME280;3962;42.696;23.354;2023-05-22T08:26:58;94966.91;;;24.83;41.66
7834;BME280;3962;42.696;23.354;2023-05-22T08:29:25;94960.34;;;24.67;40.11
7834;BME280;3962;42.696;23.354;2023-05-22T08:31:52;94971.16;;;24.90;41.03
7834;BME280;3962;42.696;23.354;2023-05-22T08:34:21;94969.13;;;24.86;41.13
7834;BME280;3962;42.696;23.354;2023-05-22T08:36:48;94961.44;;;24.43;41.00
7834;BME280;3962;42.696;23.354;2023-05-22T08:39:16;94960.84;;;24.07;42.25
7834;BME280;3962;42.696;23.354;2023-05-22T08:41:43;94958.59;;;23.81;43.35
7834;BME280;3962;42.696;23.354;2023-05-22T08:44:12;94952.81;;;23.77;41.43
7834;BME280;3962;42.696;23.354;2023-05-22T08:46:39;94949.88;;;24.13;41.28
7834;BME280;3962;42.696;23.354;2023-05-22T08:49:08;94950.81;;;24.07;41.82
7834;BME280;3962;42.696;23.354;2023-05-22T08:51:37;94956.25;;;23.96;39.15
7834;BME280;3962;42.696;23.354;2023-05-22T08:54:05;94944.66;;;24.12;37.96
7834;BME280;3962;42.696;23.354;2023-05-22T08:56:34;94951.13;;;23.53;39.30
7834;BME280;3962;42.696;23.354;2023-05-22T08:59:02;94943.88;;;22.95;41.41
7834;BME280;3962;42.696;23.354;2023-05-22T09:01:29;94949.97;;;23.72;40.59
7834;BME280;3962;42.696;23.354;2023-05-22T09:03:58;94941.81;;;24.30;38.73
7834;BME280;3962;42.696;23.354;2023-05-22T09:06:26;94937.72;;;24.67;38.99
7834;BME280;3962;42.696;23.354;2023-05-22T09:08:53;94948.78;;;24.88;37.50
7834;BME280;3962;42.696;23.354;2023-05-22T09:11:20;94940.06;;;24.75;37.47
7834;BME280;3962;42.696;23.354;2023-05-22T09:13:48;94940.84;;;23.67;39.08
7834;BME280;3962;42.696;23.354;2023-05-22T09:16:17;94943.00;;;22.83;40.27
7834;BME280;3962;42.696;23.354;2023-05-22T09:18:44;94941.53;;;22.33;41.46
7834;BME280;3962;42.696;23.354;2023-05-22T09:21:12;94937.31;;;22.37;42.17
7834;BME280;3962;42.696;23.354;2023-05-22T09:23:40;94943.34;;;22.21;42.87
7834;BME280;3962;42.696;23.354;2023-05-22T09:26:06;94942.91;;;22.24;42.96
7834;BME280;3962;42.696;23.354;2023-05-22T09:28:34;94946.38;;;21.95;46.14
7834;BME280;3962;42.696;23.354;2023-05-22T09:31:03;94946.22;;;21.66;48.02
7834;BME280;3962;42.696;23.354;2023-05-22T09:33:30;94939.53;;;21.68;49.04
7834;BME280;3962;42.696;23.354;2023-05-22T09:35:58;94945.59;;;21.88;48.91
7834;BME280;3962;42.696;23.354;2023-05-22T09:38:26;94946.66;;;21.63;46.82
7834;BME280;3962;42.696;23.354;2023-05-22T09:40:54;94943.69;;;21.22;46.60
7834;BME280;3962;42.696;23.354;2023-05-22T09:43:21;94946.28;;;21.04;46.92
7834;BME280;3962;42.696;23.354;2023-05-22T09:45:55;94943.31;;;21.12;47.54
7834;BME280;3962;42.696;23.354;2023-05-22T09:48:32;94942.72;;;21.10;48.89
7834;BME280;3962;42.696;23.354;2023-05-22T09:51:09;94933.56;;;21.11;50.12
7834;BME280;3962;42.696;23.354;2023-05-22T09:53:39;94940.00;;;21.10;50.65
7834;BME280;3962;42.696;23.354;2023-05-22T09:56:12;94933.28;;;21.19;50.42
7834;BME280;3962;42.696;23.354;2023-05-22T09:58:40;94939.06;;;20.98;50.98
7834;BME280;3962;42.696;23.354;2023-05-22T10:01:10;94929.34;;;20.84;51.96
7834;BME280;3962;42.696;23.354;2023-05-22T10:03:39;94945.22;;;20.74;52.05
7834;BME280;3962;42.696;23.354;2023-05-22T10:06:09;94944.19;;;20.68;51.59
7834;BME280;3962;42.696;23.354;2023-05-22T10:08:42;94941.34;;;20.63;52.38
7834;BME280;3962;42.696;23.354;2023-05-22T10:11:09;94941.34;;;20.63;51.78
7834;BME280;3962;42.696;23.354;2023-05-22T10:13:37;94941.69;;;20.73;51.39
7834;BME280;3962;42.696;23.354;2023-05-22T10:16:05;94944.44;;;20.67;51.84
7834;BME280;3962;42.696;23.354;2023-05-22T10:18:32;94946.94;;;20.62;52.00
7834;BME280;3962;42.696;23.354;2023-05-22T10:21:00;94943.13;;;20.32;52.89
7834;BME280;3962;42.696;23.354;2023-05-22T10:23:28;94943.84;;;20.14;53.37
7834;BME280;3962;42.696;23.354;2023-05-22T10:25:56;94941.59;;;19.98;56.27
7834;BME280;3962;42.696;23.354;2023-05-22T10:28:27;94965.31;;;19.57;62.76
7834;BME280;3962;42.696;23.354;2023-05-22T10:31:00;94947.47;;;18.85;62.02
7834;BME280;3962;42.696;23.354;2023-05-22T10:33:34;94953.06;;;18.77;63.85
7834;BME280;3962;42.696;23.354;2023-05-22T10:36:06;94962.56;;;18.79;66.91
7834;BME280;3962;42.696;23.354;2023-05-22T10:38:45;94976.69;;;18.88;67.65
7834;BME280;3962;42.696;23.354;2023-05-22T10:41:16;94975.03;;;18.87;71.89
7834;BME280;3962;42.696;23.354;2023-05-22T10:43:46;94971.50;;;18.86;69.56
7834;BME280;3962;42.696;23.354;2023-05-22T10:46:13;94964.69;;;19.16;68.89
7834;BME280;3962;42.696;23.354;2023-05-22T10:48:43;94957.25;;;19.64;69.65
7834;BME280;3962;42.696;23.354;2023-05-22T10:51:12;94963.03;;;19.87;69.92
7834;BME280;3962;42.696;23.354;2023-05-22T10:53:41;94954.25;;;19.98;67.86
7834;BME280;3962;42.696;23.354;2023-05-22T10:56:10;94945.72;;;20.14;66.97
7834;BME280;3962;42.696;23.354;2023-05-22T10:58:38;94948.34;;;20.33;69.26
7834;BME280;3962;42.696;23.354;2023-05-22T11:01:10;94946.72;;;20.26;69.88
7834;BME280;3962;42.696;23.354;2023-05-22T11:03:55;94946.88;;;20.31;69.56
7834;BME280;3962;42.696;23.354;2023-05-22T11:06:34;94942.63;;;20.54;67.66
7834;BME280;3962;42.696;23.354;2023-05-22T11:09:17;94942.38;;;21.00;65.40
7834;BME280;3962;42.696;23.354;2023-05-22T11:11:44;94932.19;;;21.26;66.60
7834;BME280;3962;42.696;23.354;2023-05-22T11:14:12;94935.31;;;21.23;66.36
7834;BME280;3962;42.696;23.354;2023-05-22T11:16:42;94928.84;;;21.00;66.31
7834;BME280;3962;42.696;23.354;2023-05-22T11:19:09;94924.75;;;20.91;65.87
7834;BME280;3962;42.696;23.354;2023-05-22T11:21:43;94938.63;;;21.01;65.39
7834;BME280;3962;42.696;23.354;2023-05-22T11:24:11;94944.59;;;20.72;58.42
7834;BME280;3962;42.696;23.354;2023-05-22T11:26:41;94971.03;;;20.26;59.33
7834;BME280;3962;42.696;23.354;2023-05-22T11:29:08;94985.81;;;18.87;60.32
7834;BME280;3962;42.696;23.354;2023-05-22T11:31:36;94966.66;;;18.50;62.88
7834;BME280;3962;42.696;23.354;2023-05-22T11:34:02;94973.72;;;18.51;64.16
7834;BME280;3962;42.696;23.354;2023-05-22T11:36:29;94985.53;;;18.50;61.84
7834;BME280;3962;42.696;23.354;2023-05-22T11:38:58;94981.13;;;18.36;62.26
7834;BME280;3962;42.696;23.354;2023-05-22T11:41:29;94980.50;;;18.40;61.97
7834;BME280;3962;42.696;23.354;2023-05-22T11:43:56;94990.41;;;18.93;60.70
7834;BME280;3962;42.696;23.354;2023-05-22T11:46:23;94987.28;;;19.02;59.77
7834;BME280;3962;42.696;23.354;2023-05-22T11:48:51;94991.22;;;18.93;59.37
7834;BME280;3962;42.696;23.354;2023-05-22T11:51:19;94982.97;;;19.14;59.90
7834;BME280;3962;42.696;23.354;2023-05-22T11:53:46;94983.41;;;19.37;59.73
7834;BME280;3962;42.696;23.354;2023-05-22T11:56:18;94984.03;;;19.33;59.89
7834;BME280;3962;42.696;23.354;2023-05-22T11:58:46;94981.75;;;19.36;59.27
7834;BME280;3962;42.696;23.354;2023-05-22T12:01:13;94986.72;;;19.59;59.06
7834;BME280;3962;42.696;23.354;2023-05-22T12:03:40;94982.34;;;19.64;58.70
7834;BME280;3962;42.696;23.354;2023-05-22T12:06:07;94981.56;;;19.44;58.65
7834;BME280;3962;42.696;23.354;2023-05-22T12:08:35;94984.41;;;19.17;59.76
7834;BME280;3962;42.696;23.354;2023-05-22T12:11:03;94984.63;;;19.15;59.39
7834;BME280;3962;42.696;23.354;2023-05-22T12:13:32;94991.06;;;19.14;60.67
7834;BME280;3962;42.696;23.354;2023-05-22T12:15:59;94985.66;;;19.14;60.83
7834;BME280;3962;42.696;23.354;2023-05-22T12:18:26;94987.72;;;19.12;62.69
7834;BME280;3962;42.696;23.354;2023-05-22T12:20:54;94972.78;;;19.16;62.88
7834;BME280;3962;42.696;23.354;2023-05-22T12:23:22;94969.19;;;18.71;64.75
7834;BME280;3962;42.696;23.354;2023-05-22T12:25:57;94971.22;;;18.49;65.71
7834;BME280;3962;42.696;23.354;2023-05-22T12:28:24;94971.03;;;18.17;68.17
7834;BME280;3962;42.696;23.354;2023-05-22T12:30:54;94969.03;;;17.85;70.31
7834;BME280;3962;42.696;23.354;2023-05-22T12:33:25;94964.53;;;17.58;71.50
7834;BME280;3962;42.696;23.354;2023-05-22T12:35:52;94966.78;;;17.54;71.80
7834;BME280;3962;42.696;23.354;2023-05-22T12:38:20;94967.94;;;17.73;72.64
7834;BME280;3962;42.696;23.354;2023-05-22T12:40:47;94964.28;;;17.87;70.60
7834;BME280;3962;42.696;23.354;2023-05-22T12:43:15;94963.31;;;18.01;69.53
7834;BME280;3962;42.696;23.354;2023-05-22T12:45:41;94971.88;;;18.17;68.75
7834;BME280;3962;42.696;23.354;2023-05-22T12:48:10;94974.75;;;18.63;68.45
7834;BME280;3962;42.696;23.354;2023-05-22T12:50:37;94974.81;;;18.69;67.21
7834;BME280;3962;42.696;23.354;2023-05-22T12:53:04;94977.09;;;18.72;67.70
7834;BME280;3962;42.696;23.354;2023-05-22T12:55:31;94978.94;;;18.72;66.57
7834;BME280;3962;42.696;23.354;2023-05-22T12:57:58;94980.16;;;18.63;68.58
7834;BME280;3962;42.696;23.354;2023-05-22T13:00:25;94987.63;;;18.61;67.87
7834;BME280;3962;42.696;23.354;2023-05-22T13:02:52;94974.63;;;18.77;67.29
7834;BME280;3962;42.696;23.354;2023-05-22T13:05:21;94971.88;;;18.64;66.09
7834;BME280;3962;42.696;23.354;2023-05-22T13:07:48;94979.72;;;18.59;65.03
7834;BME280;3962;42.696;23.354;2023-05-22T13:10:15;94956.56;;;18.84;65.07
7834;BME280;3962;42.696;23.354;2023-05-22T13:12:45;94954.56;;;19.38;64.20
7834;BME280;3962;42.696;23.354;2023-05-22T13:15:15;94946.88;;;19.41;64.28
7834;BME280;3962;42.696;23.354;2023-05-22T13:17:42;94940.44;;;19.23;65.31
7834;BME280;3962;42.696;23.354;2023-05-22T13:20:10;94933.53;;;18.75;64.73